createdAt,value
2023-09-21T00:00:17.966Z,100935.97
2023-09-21T00:00:42.907Z,100936.09
2023-09-21T00:01:07.063Z,100936.33
2023-09-21T00:01:30.282Z,100936.02
2023-09-21T00:01:54.823Z,100938.36
2023-09-21T00:02:17.143Z,100940.06
2023-09-21T00:02:56.481Z,100938.59
2023-09-21T00:03:19.036Z,100936.66
2023-09-21T00:03:41.926Z,100939.13
2023-09-21T00:04:04.577Z,100939.94
2023-09-21T00:04:28.504Z,100938.30
2023-09-21T00:04:52.959Z,100941.08
2023-09-21T00:05:17.739Z,100939.27
2023-09-21T00:05:41.579Z,100939.91
2023-09-21T00:06:05.078Z,100938.61
2023-09-21T00:06:27.775Z,100940.30
2023-09-21T00:06:50.890Z,100938.54
2023-09-21T00:07:13.188Z,100937.61
2023-09-21T00:07:37.857Z,100936.46
2023-09-21T00:08:00.352Z,100937.10
2023-09-21T00:08:23.784Z,100937.64
2023-09-21T00:08:49.441Z,100938.23
2023-09-21T00:09:12.030Z,100938.16
2023-09-21T00:09:34.523Z,100938.48
2023-09-21T00:09:56.732Z,100937.85
2023-09-21T00:10:19.882Z,100939.31
2023-09-21T00:10:42.642Z,100939.58
2023-09-21T00:11:08.521Z,100939.19
2023-09-21T00:11:31.893Z,100939.11
2023-09-21T00:11:56.227Z,100938.17
2023-09-21T00:12:18.572Z,100940.70
2023-09-21T00:12:41.430Z,100942.40
2023-09-21T00:13:06.131Z,100939.49
2023-09-21T00:13:30.396Z,100941.86
2023-09-21T00:13:53.481Z,100939.90
2023-09-21T00:14:15.778Z,100939.50
2023-09-21T00:14:38.241Z,100940.69
2023-09-21T00:15:01.062Z,100935.30
2023-09-21T00:15:31.306Z,100938.15
2023-09-21T00:15:56.709Z,100940.11
2023-09-21T00:16:20.255Z,100937.31
2023-09-21T00:16:45.602Z,100936.45
2023-09-21T00:17:08.970Z,100933.86
2023-09-21T00:17:34.156Z,100936.56
2023-09-21T00:17:58.012Z,100935.80
2023-09-21T00:18:22.752Z,100935.94
2023-09-21T00:18:45.517Z,100937.17
2023-09-21T00:19:08.622Z,100934.73
2023-09-21T00:19:31.605Z,100936.19
2023-09-21T00:19:54.720Z,100936.59
2023-09-21T00:20:25.203Z,100937.25
2023-09-21T00:20:52.634Z,100935.61
2023-09-21T00:21:15.586Z,100936.11
2023-09-21T00:21:39.141Z,100935.37
2023-09-21T00:22:01.536Z,100937.80
2023-09-21T00:22:23.769Z,100935.80
2023-09-21T00:22:46.129Z,100937.83
2023-09-21T00:23:08.572Z,100936.90
2023-09-21T00:23:31.698Z,100938.27
2023-09-21T00:23:54.902Z,100937.59
2023-09-21T00:24:17.632Z,100936.50
2023-09-21T00:24:40.391Z,100934.83
2023-09-21T00:25:08.856Z,100933.89
2023-09-21T00:25:31.652Z,100935.79
2023-09-21T00:26:00.376Z,100935.79
2023-09-21T00:26:22.648Z,100937.34
2023-09-21T00:26:48.901Z,100936.40
2023-09-21T00:27:11.785Z,100937.30
2023-09-21T00:27:34.755Z,100940.06
2023-09-21T00:27:57.587Z,100937.73
2023-09-21T00:28:21.386Z,100938.48
2023-09-21T00:28:45.785Z,100938.59
2023-09-21T00:29:09.048Z,100937.02
2023-09-21T00:29:32.060Z,100937.15
2023-09-21T00:29:54.342Z,100939.73
2023-09-21T00:30:18.178Z,100938.89
2023-09-21T00:30:42.248Z,100937.84
2023-09-21T00:31:06.253Z,100939.13
2023-09-21T00:31:28.719Z,100939.74
2023-09-21T00:31:51.434Z,100939.98
2023-09-21T00:32:13.854Z,100939.11
2023-09-21T00:32:39.465Z,100940.20
2023-09-21T00:33:03.458Z,100935.91
2023-09-21T00:33:27.049Z,100935.27
2023-09-21T00:33:49.562Z,100935.17
2023-09-21T00:34:12.319Z,100939.64
2023-09-21T00:34:36.017Z,100939.58
2023-09-21T00:34:58.976Z,100938.64
2023-09-21T00:35:21.529Z,100937.67
2023-09-21T00:35:44.054Z,100939.52
2023-09-21T00:36:06.874Z,100940.95
2023-09-21T00:36:29.967Z,100938.36
2023-09-21T00:36:52.349Z,100940.73
2023-09-21T00:37:18.574Z,100938.83
2023-09-21T00:37:40.926Z,100937.73
2023-09-21T00:38:03.637Z,100939.73
2023-09-21T00:38:26.248Z,100940.42
2023-09-21T00:38:49.085Z,100940.12
2023-09-21T00:39:12.740Z,100944.71
2023-09-21T00:39:36.303Z,100940.41
2023-09-21T00:39:59.005Z,100941.68
2023-09-21T00:40:21.634Z,100943.41
2023-09-21T00:40:44.306Z,100944.39
2023-09-21T00:41:07.110Z,100943.36
2023-09-21T00:41:32.999Z,100943.49
2023-09-21T00:41:55.384Z,100942.53
2023-09-21T00:42:17.751Z,100944.75
2023-09-21T00:42:40.323Z,100941.48
2023-09-21T00:43:07.626Z,100945.30
2023-09-21T00:43:30.264Z,100945.84
2023-09-21T00:43:52.700Z,100945.17
2023-09-21T00:44:14.919Z,100945.13
2023-09-21T00:44:37.125Z,100944.98
2023-09-21T00:45:00.300Z,100945.16
2023-09-21T00:45:24.442Z,100944.35
2023-09-21T00:45:48.396Z,100943.06
2023-09-21T00:46:10.904Z,100943.67
2023-09-21T00:46:37.015Z,100945.05
2023-09-21T00:46:59.723Z,100944.58
2023-09-21T00:47:22.336Z,100945.60
2023-09-21T00:47:50.786Z,100944.09
2023-09-21T00:48:21.623Z,100945.66
2023-09-21T00:48:45.345Z,100945.41
2023-09-21T00:49:08.218Z,100946.65
2023-09-21T00:49:30.919Z,100947.71
2023-09-21T00:49:53.229Z,100945.73
2023-09-21T00:50:15.520Z,100946.08
2023-09-21T00:50:38.268Z,100946.77
2023-09-21T00:51:06.704Z,100946.38
2023-09-21T00:51:29.180Z,100946.41
2023-09-21T00:51:52.058Z,100943.09
2023-09-21T00:52:15.177Z,100946.32
2023-09-21T00:52:38.597Z,100942.43
2023-09-21T00:53:00.898Z,100946.04
2023-09-21T00:53:23.522Z,100941.88
2023-09-21T00:53:46.840Z,100944.11
2023-09-21T00:54:13.723Z,100941.89
2023-09-21T00:54:37.538Z,100942.50
2023-09-21T00:55:00.169Z,100945.36
2023-09-21T00:55:25.098Z,100942.83
2023-09-21T00:55:57.331Z,100941.27
2023-09-21T00:56:20.668Z,100943.98
2023-09-21T00:56:43.062Z,100942.48
2023-09-21T00:57:07.010Z,100945.71
2023-09-21T00:57:29.392Z,100946.73
2023-09-21T00:57:56.775Z,100943.08
2023-09-21T00:58:19.756Z,100945.09
2023-09-21T00:58:46.365Z,100944.67
2023-09-21T00:59:09.383Z,100947.41
2023-09-21T00:59:37.262Z,100948.48
2023-09-21T01:00:00.319Z,100944.52
2023-09-21T01:00:27.034Z,100945.02
2023-09-21T01:00:49.540Z,100948.16
2023-09-21T01:01:24.376Z,100948.32
2023-09-21T01:01:47.521Z,100947.58
2023-09-21T01:02:12.970Z,100947.20
2023-09-21T01:02:35.440Z,100944.58
2023-09-21T01:03:09.221Z,100946.31
2023-09-21T01:03:32.260Z,100947.75
2023-09-21T01:03:55.685Z,100946.32
2023-09-21T01:04:18.417Z,100945.70
2023-09-21T01:04:41.017Z,100946.67
2023-09-21T01:05:09.769Z,100944.86
2023-09-21T01:05:33.953Z,100945.19
2023-09-21T01:05:57.113Z,100946.91
2023-09-21T01:06:19.463Z,100946.48
2023-09-21T01:06:43.225Z,100944.68
2023-09-21T01:07:12.839Z,100943.15
2023-09-21T01:07:37.483Z,100944.16
2023-09-21T01:08:01.940Z,100943.70
2023-09-21T01:08:30.158Z,100947.63
2023-09-21T01:08:52.646Z,100944.46
2023-09-21T01:09:19.177Z,100946.48
2023-09-21T01:09:42.463Z,100945.86
2023-09-21T01:10:07.989Z,100941.71
2023-09-21T01:10:30.214Z,100944.80
2023-09-21T01:10:52.501Z,100945.21
2023-09-21T01:11:15.920Z,100943.20
2023-09-21T01:11:39.030Z,100948.63
2023-09-21T01:12:06.788Z,100945.89
2023-09-21T01:12:29.376Z,100946.27
2023-09-21T01:12:52.861Z,100944.30
2023-09-21T01:13:16.421Z,100944.52
2023-09-21T01:13:39.121Z,100945.81
2023-09-21T01:14:01.346Z,100945.69
2023-09-21T01:14:24.055Z,100948.77
2023-09-21T01:14:46.339Z,100945.51
2023-09-21T01:15:12.518Z,100948.63
2023-09-21T01:15:35.380Z,100949.80
2023-09-21T01:16:04.632Z,100947.79
2023-09-21T01:16:27.099Z,100950.91
2023-09-21T01:16:52.014Z,100950.67
2023-09-21T01:17:15.032Z,100945.80
2023-09-21T01:17:42.731Z,100949.80
2023-09-21T01:18:05.931Z,100950.72
2023-09-21T01:18:28.600Z,100949.79
2023-09-21T01:18:54.330Z,100948.42
2023-09-21T01:19:17.460Z,100948.85
2023-09-21T01:19:40.665Z,100950.70
2023-09-21T01:20:14.448Z,100947.23
2023-09-21T01:20:36.882Z,100947.71
2023-09-21T01:21:06.114Z,100950.77
2023-09-21T01:21:38.689Z,100950.48
2023-09-21T01:22:01.302Z,100952.17
2023-09-21T01:22:25.155Z,100950.64
2023-09-21T01:22:48.782Z,100950.94
2023-09-21T01:23:16.463Z,100949.47
2023-09-21T01:23:47.746Z,100949.98
2023-09-21T01:24:12.733Z,100950.81
2023-09-21T01:24:36.747Z,100949.09
2023-09-21T01:24:58.972Z,100949.95
2023-09-21T01:25:22.467Z,100948.69
2023-09-21T01:25:45.580Z,100953.04
2023-09-21T01:26:07.979Z,100953.06
2023-09-21T01:26:30.378Z,100951.11
2023-09-21T01:26:52.736Z,100952.23
2023-09-21T01:27:15.183Z,100950.15
2023-09-21T01:27:39.513Z,100950.27
2023-09-21T01:28:01.915Z,100949.63
2023-09-21T01:28:24.215Z,100949.38
2023-09-21T01:28:48.582Z,100951.30
2023-09-21T01:29:15.360Z,100952.51
2023-09-21T01:29:37.761Z,100951.33
2023-09-21T01:30:00.569Z,100949.30
2023-09-21T01:30:23.284Z,100946.17
2023-09-21T01:30:45.695Z,100947.96
2023-09-21T01:31:13.315Z,100947.57
2023-09-21T01:31:36.214Z,100949.55
2023-09-21T01:31:59.088Z,100952.41
2023-09-21T01:32:23.727Z,100951.48
2023-09-21T01:32:47.128Z,100949.90
2023-09-21T01:33:10.251Z,100950.35
2023-09-21T01:33:34.489Z,100949.45
2023-09-21T01:34:00.039Z,100948.75
2023-09-21T01:34:22.377Z,100949.77
2023-09-21T01:34:48.147Z,100951.73
2023-09-21T01:35:11.170Z,100954.31
2023-09-21T01:35:34.652Z,100955.85
2023-09-21T01:35:57.758Z,100953.71
2023-09-21T01:36:21.271Z,100958.95
2023-09-21T01:36:44.989Z,100956.75
2023-09-21T01:37:07.595Z,100957.28
2023-09-21T01:37:31.068Z,100957.02
2023-09-21T01:37:56.237Z,100957.98
2023-09-21T01:38:18.680Z,100956.06
2023-09-21T01:38:42.348Z,100957.44
2023-09-21T01:39:10.696Z,100957.40
2023-09-21T01:39:33.495Z,100956.89
2023-09-21T01:39:55.827Z,100959.45
2023-09-21T01:40:18.399Z,100956.08
2023-09-21T01:40:41.410Z,100959.52
2023-09-21T01:41:04.314Z,100959.08
2023-09-21T01:41:26.916Z,100955.92
2023-09-21T01:41:51.479Z,100954.19
2023-09-21T01:42:13.896Z,100958.13
2023-09-21T01:42:37.741Z,100957.67
2023-09-21T01:43:00.933Z,100956.71
2023-09-21T01:43:23.819Z,100959.18
2023-09-21T01:43:46.474Z,100958.33
2023-09-21T01:44:10.761Z,100959.24
2023-09-21T01:44:32.995Z,100959.11
2023-09-21T01:44:56.284Z,100959.69
2023-09-21T01:45:18.984Z,100958.50
2023-09-21T01:45:41.645Z,100958.61
2023-09-21T01:46:06.018Z,100954.48
2023-09-21T01:46:28.956Z,100957.88
2023-09-21T01:46:51.306Z,100959.48
2023-09-21T01:47:14.274Z,100957.21
2023-09-21T01:47:38.067Z,100957.98
2023-09-21T01:48:01.598Z,100955.03
2023-09-21T01:48:24.350Z,100958.85
2023-09-21T01:48:47.279Z,100957.88
2023-09-21T01:49:13.900Z,100959.40
2023-09-21T01:49:36.304Z,100961.30
2023-09-21T01:49:58.521Z,100961.02
2023-09-21T01:50:22.444Z,100956.50
2023-09-21T01:50:47.098Z,100956.96
2023-09-21T01:51:09.614Z,100959.20
2023-09-21T01:51:32.788Z,100958.77
2023-09-21T01:51:55.190Z,100959.92
2023-09-21T01:52:17.585Z,100958.11
2023-09-21T01:52:40.188Z,100958.61
2023-09-21T01:53:07.298Z,100957.63
2023-09-21T01:53:29.821Z,100956.99
2023-09-21T01:53:54.751Z,100953.53
2023-09-21T01:54:17.336Z,100958.38
2023-09-21T01:54:39.951Z,100956.21
2023-09-21T01:55:07.605Z,100955.45
2023-09-21T01:55:29.802Z,100956.54
2023-09-21T01:55:52.668Z,100953.17
2023-09-21T01:56:17.666Z,100957.52
2023-09-21T01:56:40.053Z,100958.42
2023-09-21T01:57:07.367Z,100957.60
2023-09-21T01:57:30.190Z,100956.11
2023-09-21T01:57:52.535Z,100956.91
2023-09-21T01:58:16.268Z,100957.67
2023-09-21T01:58:39.633Z,100959.70
2023-09-21T01:59:01.910Z,100959.09
2023-09-21T01:59:24.346Z,100958.40
2023-09-21T01:59:47.311Z,100959.86
2023-09-21T02:00:26.963Z,100961.19
2023-09-21T02:00:49.389Z,100959.14
2023-09-21T02:01:11.842Z,100959.91
2023-09-21T02:01:35.099Z,100962.20
2023-09-21T02:01:57.788Z,100959.70
2023-09-21T02:02:22.172Z,100959.94
2023-09-21T02:02:44.756Z,100957.54
2023-09-21T02:03:10.477Z,100962.02
2023-09-21T02:03:33.302Z,100961.39
2023-09-21T02:03:56.269Z,100958.65
2023-09-21T02:04:18.809Z,100959.27
2023-09-21T02:04:41.158Z,100957.23
2023-09-21T02:05:04.834Z,100960.20
2023-09-21T02:05:29.088Z,100962.94
2023-09-21T02:05:51.493Z,100963.13
2023-09-21T02:06:13.850Z,100962.80
2023-09-21T02:06:36.287Z,100961.12
2023-09-21T02:06:58.885Z,100963.17
2023-09-21T02:07:21.179Z,100963.23
2023-09-21T02:07:44.908Z,100960.87
2023-09-21T02:08:08.533Z,100965.91
2023-09-21T02:08:33.415Z,100965.30
2023-09-21T02:08:58.372Z,100966.35
2023-09-21T02:09:21.171Z,100964.70
2023-09-21T02:09:43.656Z,100965.34
2023-09-21T02:10:06.500Z,100963.34
2023-09-21T02:10:29.164Z,100963.29
2023-09-21T02:10:52.111Z,100963.16
2023-09-21T02:11:15.202Z,100962.02
2023-09-21T02:11:37.736Z,100962.44
2023-09-21T02:12:00.158Z,100961.48
2023-09-21T02:12:23.125Z,100963.16
2023-09-21T02:12:53.367Z,100962.36
2023-09-21T02:13:15.771Z,100961.33
2023-09-21T02:13:39.420Z,100963.00
2023-09-21T02:14:01.995Z,100960.31
2023-09-21T02:14:24.323Z,100959.01
2023-09-21T02:14:48.553Z,100964.79
2023-09-21T02:15:14.077Z,100961.52
2023-09-21T02:15:38.675Z,100961.88
2023-09-21T02:16:01.048Z,100964.41
2023-09-21T02:16:25.946Z,100963.27
2023-09-21T02:16:49.553Z,100964.02
2023-09-21T02:17:13.044Z,100961.26
2023-09-21T02:17:35.495Z,100962.05
2023-09-21T02:17:58.475Z,100963.05
2023-09-21T02:18:21.305Z,100964.06
2023-09-21T02:18:45.786Z,100962.80
2023-09-21T02:19:09.226Z,100961.89
2023-09-21T02:19:38.770Z,100964.59
2023-09-21T02:20:01.757Z,100959.44
2023-09-21T02:20:24.507Z,100961.92
2023-09-21T02:20:46.916Z,100961.48
2023-09-21T02:21:12.790Z,100962.89
2023-09-21T02:21:35.663Z,100963.71
2023-09-21T02:21:58.086Z,100963.98
2023-09-21T02:22:21.321Z,100964.83
2023-09-21T02:22:51.266Z,100964.39
2023-09-21T02:23:13.663Z,100966.84
2023-09-21T02:23:39.003Z,100966.63
2023-09-21T02:24:02.423Z,100967.05
2023-09-21T02:24:26.995Z,100967.23
2023-09-21T02:24:49.627Z,100965.39
2023-09-21T02:25:12.311Z,100965.52
2023-09-21T02:25:41.573Z,100967.80
2023-09-21T02:26:05.126Z,100967.91
2023-09-21T02:26:30.053Z,100968.55
2023-09-21T02:26:52.357Z,100963.38
2023-09-21T02:27:15.293Z,100964.37
2023-09-21T02:27:41.817Z,100965.32
2023-09-21T02:28:11.112Z,100963.11
2023-09-21T02:28:33.478Z,100961.41
2023-09-21T02:28:57.101Z,100960.98
2023-09-21T02:29:19.530Z,100962.83
2023-09-21T02:29:42.338Z,100962.52
2023-09-21T02:30:07.141Z,100964.37
2023-09-21T02:30:30.007Z,100964.66
2023-09-21T02:30:52.948Z,100963.30
2023-09-21T02:31:16.227Z,100964.06
2023-09-21T02:31:39.103Z,100963.88
2023-09-21T02:32:05.291Z,100960.84
2023-09-21T02:32:27.625Z,100963.05
2023-09-21T02:32:51.358Z,100961.55
2023-09-21T02:33:13.802Z,100962.33
2023-09-21T02:33:36.923Z,100963.47
2023-09-21T02:33:59.955Z,100959.69
2023-09-21T02:34:22.235Z,100961.33
2023-09-21T02:34:44.557Z,100962.47
2023-09-21T02:35:09.219Z,100961.67
2023-09-21T02:35:33.209Z,100960.22
2023-09-21T02:35:55.447Z,100964.99
2023-09-21T02:36:21.463Z,100964.59
2023-09-21T02:36:44.751Z,100961.85
2023-09-21T02:37:08.223Z,100965.39
2023-09-21T02:37:30.647Z,100960.14
2023-09-21T02:37:53.272Z,100961.59
2023-09-21T02:38:17.428Z,100966.31
2023-09-21T02:38:41.589Z,100962.40
2023-09-21T02:39:10.002Z,100963.72
2023-09-21T02:39:34.578Z,100964.34
2023-09-21T02:39:56.876Z,100965.30
2023-09-21T02:40:21.024Z,100964.16
2023-09-21T02:40:47.280Z,100962.30
2023-09-21T02:41:10.564Z,100962.92
2023-09-21T02:41:33.013Z,100965.34
2023-09-21T02:41:56.278Z,100963.58
2023-09-21T02:42:19.306Z,100968.44
2023-09-21T02:42:42.971Z,100964.08
2023-09-21T02:43:05.424Z,100966.66
2023-09-21T02:43:30.635Z,100969.25
2023-09-21T02:43:54.203Z,100969.14
2023-09-21T02:44:17.983Z,100967.70
2023-09-21T02:44:42.329Z,100969.75
2023-09-21T02:45:06.289Z,100968.05
2023-09-21T02:45:31.318Z,100968.56
2023-09-21T02:45:53.537Z,100962.96
2023-09-21T02:46:16.613Z,100968.60
2023-09-21T02:46:39.405Z,100966.56
2023-09-21T02:47:01.657Z,100969.39
2023-09-21T02:47:24.940Z,100967.77
2023-09-21T02:47:48.286Z,100967.40
2023-09-21T02:48:10.675Z,100966.23
2023-09-21T02:48:33.286Z,100963.46
2023-09-21T02:48:55.642Z,100967.21
2023-09-21T02:49:17.984Z,100964.08
2023-09-21T02:49:40.760Z,100964.48
2023-09-21T02:50:15.786Z,100967.20
2023-09-21T02:50:38.257Z,100966.19
2023-09-21T02:51:03.663Z,100966.29
2023-09-21T02:51:26.818Z,100964.51
2023-09-21T02:51:49.228Z,100966.27
2023-09-21T02:52:11.923Z,100963.67
2023-09-21T02:52:34.528Z,100967.71
2023-09-21T02:53:17.315Z,100969.80
2023-09-21T02:53:40.121Z,100968.00
2023-09-21T02:54:02.537Z,100968.36
2023-09-21T02:54:24.987Z,100966.31
2023-09-21T02:54:48.300Z,100968.69
2023-09-21T02:55:10.637Z,100972.01
2023-09-21T02:55:34.601Z,100966.92
2023-09-21T02:55:56.887Z,100970.20
2023-09-21T02:56:21.389Z,100972.91
2023-09-21T02:56:44.748Z,100970.91
2023-09-21T02:57:07.768Z,100969.01
2023-09-21T02:57:34.536Z,100972.63
2023-09-21T02:58:11.496Z,100969.75
2023-09-21T02:58:42.344Z,100968.09
2023-09-21T02:59:05.521Z,100970.35
2023-09-21T02:59:27.920Z,100972.18
2023-09-21T02:59:50.878Z,100968.32
2023-09-21T03:00:44.342Z,100971.13
2023-09-21T03:01:06.840Z,100969.79
2023-09-21T03:01:31.978Z,100974.46
2023-09-21T03:01:55.748Z,100969.08
2023-09-21T03:02:20.071Z,100974.29
2023-09-21T03:02:44.250Z,100975.95
2023-09-21T03:03:08.131Z,100974.94
2023-09-21T03:03:33.730Z,100973.05
2023-09-21T03:03:56.653Z,100971.27
2023-09-21T03:04:19.127Z,100974.17
2023-09-21T03:04:43.952Z,100977.08
2023-09-21T03:05:11.260Z,100976.09
2023-09-21T03:05:37.310Z,100974.17
2023-09-21T03:06:00.100Z,100976.88
2023-09-21T03:06:23.837Z,100974.80
2023-09-21T03:06:47.577Z,100976.70
2023-09-21T03:07:10.305Z,100974.23
2023-09-21T03:07:34.654Z,100974.57
2023-09-21T03:07:57.491Z,100974.98
2023-09-21T03:08:20.170Z,100974.25
2023-09-21T03:08:46.670Z,100972.32
2023-09-21T03:09:09.307Z,100974.55
2023-09-21T03:09:32.257Z,100974.09
2023-09-21T03:09:55.519Z,100974.11
2023-09-21T03:10:18.593Z,100974.06
2023-09-21T03:10:48.904Z,100972.66
2023-09-21T03:11:11.494Z,100970.69
2023-09-21T03:11:33.709Z,100969.89
2023-09-21T03:11:55.994Z,100973.13
2023-09-21T03:12:18.366Z,100972.89
2023-09-21T03:12:40.954Z,100971.75
2023-09-21T03:13:03.770Z,100972.14
2023-09-21T03:13:26.135Z,100971.88
2023-09-21T03:13:50.111Z,100970.90
2023-09-21T03:14:12.798Z,100971.25
2023-09-21T03:14:35.197Z,100970.27
2023-09-21T03:14:58.866Z,100969.02
2023-09-21T03:15:23.850Z,100971.23
2023-09-21T03:15:46.615Z,100971.19
2023-09-21T03:16:13.903Z,100972.02
2023-09-21T03:16:39.820Z,100971.27
2023-09-21T03:17:03.569Z,100972.60
2023-09-21T03:17:26.055Z,100974.33
2023-09-21T03:17:49.040Z,100970.89
2023-09-21T03:18:13.315Z,100973.10
2023-09-21T03:18:37.758Z,100973.92
2023-09-21T03:19:00.655Z,100972.95
2023-09-21T03:19:26.373Z,100974.09
2023-09-21T03:19:50.815Z,100976.98
2023-09-21T03:20:14.173Z,100975.66
2023-09-21T03:20:38.579Z,100976.98
2023-09-21T03:21:01.575Z,100974.23
2023-09-21T03:21:25.884Z,100976.38
2023-09-21T03:21:49.540Z,100974.25
2023-09-21T03:22:13.083Z,100976.73
2023-09-21T03:22:36.296Z,100974.52
2023-09-21T03:23:00.339Z,100977.42
2023-09-21T03:23:24.073Z,100979.10
2023-09-21T03:23:47.790Z,100974.94
2023-09-21T03:24:10.946Z,100974.65
2023-09-21T03:24:34.636Z,100976.63
2023-09-21T03:24:58.661Z,100980.80
2023-09-21T03:25:27.107Z,100977.52
2023-09-21T03:25:51.664Z,100978.28
2023-09-21T03:26:20.496Z,100975.92
2023-09-21T03:26:42.851Z,100976.80
2023-09-21T03:27:05.779Z,100976.80
2023-09-21T03:27:28.198Z,100978.45
2023-09-21T03:27:51.124Z,100979.04
2023-09-21T03:28:17.113Z,100977.34
2023-09-21T03:28:39.371Z,100980.78
2023-09-21T03:29:02.387Z,100980.55
2023-09-21T03:29:24.883Z,100979.90
2023-09-21T03:29:47.869Z,100978.06
2023-09-21T03:30:13.537Z,100978.13
2023-09-21T03:30:36.237Z,100979.27
2023-09-21T03:30:59.347Z,100978.61
2023-09-21T03:31:21.899Z,100980.84
2023-09-21T03:31:45.652Z,100978.95
2023-09-21T03:32:11.496Z,100980.45
2023-09-21T03:32:34.066Z,100978.98
2023-09-21T03:32:59.055Z,100979.02
2023-09-21T03:33:22.649Z,100978.80
2023-09-21T03:33:49.133Z,100979.23
2023-09-21T03:34:12.887Z,100979.61
2023-09-21T03:34:37.652Z,100975.81
2023-09-21T03:35:00.240Z,100979.62
2023-09-21T03:35:27.983Z,100977.20
2023-09-21T03:35:53.639Z,100977.65
2023-09-21T03:36:18.342Z,100976.31
2023-09-21T03:36:42.494Z,100975.86
2023-09-21T03:37:04.836Z,100978.02
2023-09-21T03:37:28.333Z,100977.19
2023-09-21T03:37:51.889Z,100976.86
2023-09-21T03:38:14.220Z,100979.38
2023-09-21T03:38:36.660Z,100978.37
2023-09-21T03:38:59.073Z,100978.55
2023-09-21T03:39:21.474Z,100978.08
2023-09-21T03:39:43.954Z,100979.39
2023-09-21T03:40:07.503Z,100981.72
2023-09-21T03:40:31.747Z,100979.64
2023-09-21T03:40:54.323Z,100978.27
2023-09-21T03:41:16.823Z,100980.02
2023-09-21T03:41:39.216Z,100978.81
2023-09-21T03:42:01.575Z,100979.87
2023-09-21T03:42:24.834Z,100980.79
2023-09-21T03:42:47.372Z,100978.77
2023-09-21T03:43:13.889Z,100981.16
2023-09-21T03:43:37.654Z,100982.28
2023-09-21T03:44:00.251Z,100982.42
2023-09-21T03:44:22.696Z,100983.34
2023-09-21T03:44:44.928Z,100983.02
2023-09-21T03:45:08.787Z,100985.50
2023-09-21T03:45:32.414Z,100979.77
2023-09-21T03:45:54.720Z,100986.21
2023-09-21T03:46:17.769Z,100983.23
2023-09-21T03:46:40.268Z,100984.23
2023-09-21T03:47:05.475Z,100984.27
2023-09-21T03:47:27.695Z,100983.64
2023-09-21T03:47:50.924Z,100985.50
2023-09-21T03:48:14.290Z,100982.23
2023-09-21T03:48:37.247Z,100982.16
2023-09-21T03:49:00.247Z,100980.48
2023-09-21T03:49:22.854Z,100982.83
2023-09-21T03:49:48.297Z,100984.28
2023-09-21T03:50:13.761Z,100981.15
2023-09-21T03:50:37.230Z,100986.13
2023-09-21T03:51:01.045Z,100983.54
2023-09-21T03:51:23.453Z,100981.65
2023-09-21T03:51:48.815Z,100985.05
2023-09-21T03:52:17.373Z,100983.45
2023-09-21T03:52:41.055Z,100981.76
2023-09-21T03:53:07.090Z,100982.89
2023-09-21T03:53:29.971Z,100981.33
2023-09-21T03:53:53.646Z,100985.27
2023-09-21T03:54:17.656Z,100984.15
2023-09-21T03:54:42.267Z,100984.02
2023-09-21T03:55:05.750Z,100985.77
2023-09-21T03:55:28.559Z,100990.80
2023-09-21T03:55:52.399Z,100990.00
2023-09-21T03:56:14.711Z,100988.70
2023-09-21T03:56:37.776Z,100984.54
2023-09-21T03:57:00.246Z,100987.91
2023-09-21T03:57:22.668Z,100988.31
2023-09-21T03:57:47.959Z,100987.45
2023-09-21T03:58:13.649Z,100987.05
2023-09-21T03:58:36.031Z,100989.88
2023-09-21T03:59:01.165Z,100989.38
2023-09-21T03:59:24.103Z,100990.63
2023-09-21T03:59:47.727Z,100989.17
2023-09-21T04:00:29.145Z,100990.64
2023-09-21T04:00:51.374Z,100991.11
2023-09-21T04:01:15.290Z,100994.59
2023-09-21T04:01:41.292Z,100992.48
2023-09-21T04:02:05.388Z,100993.73
2023-09-21T04:02:28.303Z,100992.73
2023-09-21T04:02:50.949Z,100990.81
2023-09-21T04:03:13.889Z,100992.83
2023-09-21T04:03:54.058Z,100992.70
2023-09-21T04:04:19.915Z,100992.73
2023-09-21T04:04:43.543Z,100994.19
2023-09-21T04:05:08.820Z,100991.16
2023-09-21T04:05:32.722Z,100995.61
2023-09-21T04:05:55.268Z,100994.51
2023-09-21T04:06:18.563Z,100995.60
2023-09-21T04:06:41.012Z,100995.79
2023-09-21T04:07:03.778Z,100996.69
2023-09-21T04:07:26.119Z,100995.94
2023-09-21T04:07:49.436Z,100995.48
2023-09-21T04:08:11.734Z,100998.09
2023-09-21T04:08:34.132Z,101001.08
2023-09-21T04:08:56.611Z,100998.08
2023-09-21T04:09:19.710Z,100995.27
2023-09-21T04:09:42.073Z,100996.55
2023-09-21T04:10:05.570Z,100995.11
2023-09-21T04:10:28.169Z,100999.17
2023-09-21T04:10:51.074Z,100998.98
2023-09-21T04:11:14.295Z,100996.17
2023-09-21T04:11:36.560Z,100999.17
2023-09-21T04:11:59.230Z,100996.30
2023-09-21T04:12:22.602Z,101000.88
2023-09-21T04:12:46.136Z,100998.40
2023-09-21T04:13:08.530Z,100997.91
2023-09-21T04:13:30.932Z,100999.36
2023-09-21T04:13:57.394Z,100997.47
2023-09-21T04:14:26.007Z,101000.20
2023-09-21T04:14:48.939Z,100997.86
2023-09-21T04:15:12.821Z,100998.75
2023-09-21T04:15:35.466Z,100999.40
2023-09-21T04:15:59.160Z,101001.35
2023-09-21T04:16:21.989Z,100997.16
2023-09-21T04:16:44.459Z,100996.78
2023-09-21T04:17:06.759Z,100998.61
2023-09-21T04:17:30.100Z,100997.83
2023-09-21T04:17:52.465Z,100996.34
2023-09-21T04:18:15.004Z,100997.34
2023-09-21T04:18:37.477Z,100998.20
2023-09-21T04:19:03.495Z,101000.81
2023-09-21T04:19:25.829Z,100997.63
2023-09-21T04:19:49.039Z,100996.92
2023-09-21T04:20:16.607Z,100997.95
2023-09-21T04:20:41.387Z,100999.88
2023-09-21T04:21:19.074Z,100998.08
2023-09-21T04:21:42.899Z,101002.45
2023-09-21T04:22:05.505Z,100997.66
2023-09-21T04:22:28.284Z,100997.27
2023-09-21T04:22:51.802Z,101002.86
2023-09-21T04:23:14.103Z,100998.96
2023-09-21T04:23:36.374Z,101000.67
2023-09-21T04:23:58.861Z,101003.14
2023-09-21T04:24:21.235Z,101001.02
2023-09-21T04:24:43.693Z,100999.89
2023-09-21T04:25:10.153Z,101003.25
2023-09-21T04:25:34.509Z,101003.02
2023-09-21T04:25:56.922Z,101004.91
2023-09-21T04:26:20.049Z,101004.38
2023-09-21T04:26:43.372Z,101005.58
2023-09-21T04:27:06.940Z,101007.31
2023-09-21T04:27:30.914Z,101002.83
2023-09-21T04:27:54.665Z,101005.94
2023-09-21T04:28:17.565Z,101005.17
2023-09-21T04:28:40.954Z,101007.43
2023-09-21T04:29:06.643Z,101007.97
2023-09-21T04:29:29.148Z,101006.66
2023-09-21T04:29:51.492Z,101005.86
2023-09-21T04:30:17.918Z,101002.48
2023-09-21T04:30:41.140Z,101002.56
2023-09-21T04:31:03.873Z,101002.66
2023-09-21T04:31:26.363Z,101000.84
2023-09-21T04:31:48.891Z,101001.88
2023-09-21T04:32:11.450Z,101002.16
2023-09-21T04:32:34.202Z,101002.13
2023-09-21T04:32:58.474Z,101003.05
2023-09-21T04:33:21.200Z,101003.70
2023-09-21T04:33:44.442Z,101000.66